createdAt,value
2023-01-06T00:00:41.322Z,89.42
2023-01-06T00:05:42.967Z,89.90
2023-01-06T00:10:44.841Z,90.78
2023-01-06T00:15:46.871Z,90.82
2023-01-06T00:20:48.563Z,91.07
2023-01-06T00:25:51.188Z,91.59
2023-01-06T00:30:53.155Z,91.78
2023-01-06T00:35:59.358Z,92.26
2023-01-06T00:41:04.229Z,92.21
2023-01-06T00:46:06.064Z,92.05
2023-01-06T00:51:07.808Z,92.47
2023-01-06T00:56:09.479Z,92.87
2023-01-06T01:01:11.519Z,93.14
2023-01-06T01:06:13.466Z,93.60
2023-01-06T01:11:35.081Z,93.65
2023-01-06T01:16:36.889Z,93.19
2023-01-06T01:21:39.387Z,93.04
2023-01-06T01:26:41.683Z,92.28
2023-01-06T01:31:44.401Z,92.57
2023-01-06T01:36:47.094Z,92.48
2023-01-06T01:41:49.501Z,92.47
2023-01-06T01:46:51.295Z,92.59
2023-01-06T01:51:56.972Z,92.34
2023-01-06T01:57:05.277Z,91.75
2023-01-06T02:02:07.149Z,91.70
2023-01-06T02:07:09.184Z,91.46
2023-01-06T02:12:11.526Z,90.75
2023-01-06T02:17:47.304Z,90.68
2023-01-06T02:23:13.791Z,90.67
2023-01-06T02:28:51.842Z,90.28
2023-01-06T02:34:03.513Z,89.68
2023-01-06T02:39:30.467Z,89.86
2023-01-06T02:44:46.736Z,89.65
2023-01-06T02:50:00.546Z,89.53
2023-01-06T02:55:12.780Z,89.79
2023-01-06T03:00:21.283Z,89.75
2023-01-06T03:05:25.674Z,89.82
2023-01-06T03:10:29.831Z,89.73
2023-01-06T03:15:31.851Z,90.31
2023-01-06T03:20:34.142Z,89.89
2023-01-06T03:25:38.293Z,90.03
2023-01-06T03:31:05.767Z,90.13
2023-01-06T03:36:28.248Z,90.58
2023-01-06T03:41:58.801Z,90.56
2023-01-06T03:47:15.152Z,90.49
2023-01-06T03:52:31.095Z,90.51
2023-01-06T03:57:37.878Z,90.53
2023-01-06T04:02:43.440Z,90.18
2023-01-06T04:07:50.907Z,90.18
2023-01-06T04:12:53.970Z,90.23
2023-01-06T04:18:00.590Z,89.80
2023-01-06T04:23:05.925Z,90.00
2023-01-06T04:28:11.854Z,90.04
2023-01-06T04:33:13.661Z,90.04
2023-01-06T04:38:18.137Z,89.71
2023-01-06T04:43:19.950Z,90.39
2023-01-06T04:48:22.212Z,91.30
2023-01-06T04:53:23.888Z,91.44
2023-01-06T04:58:25.604Z,92.13
2023-01-06T05:03:27.561Z,92.63
2023-01-06T05:08:31.042Z,92.91
2023-01-06T05:13:33.310Z,93.19
2023-01-06T05:18:35.159Z,93.27
2023-01-06T05:23:37.834Z,92.94
2023-01-06T05:28:39.526Z,92.86
2023-01-06T05:33:41.583Z,92.65
2023-01-06T05:38:43.463Z,93.06
2023-01-06T05:43:45.273Z,93.65
2023-01-06T05:48:46.986Z,93.78
2023-01-06T05:53:49.134Z,94.21
2023-01-06T05:58:52.635Z,94.33
2023-01-06T06:03:54.772Z,94.29
2023-01-06T06:08:57.861Z,94.16
2023-01-06T06:13:59.614Z,94.00
2023-01-06T06:19:01.377Z,94.32
2023-01-06T06:24:03.295Z,94.49
2023-01-06T06:29:06.438Z,94.75
2023-01-06T06:34:12.447Z,94.75
2023-01-06T06:39:14.158Z,94.86
2023-01-06T06:44:15.851Z,94.58
2023-01-06T06:49:17.879Z,94.47
2023-01-06T06:54:19.549Z,95.00
2023-01-06T06:59:21.235Z,94.94
2023-01-06T07:04:22.984Z,93.90
2023-01-06T07:09:24.728Z,93.70
2023-01-06T07:14:26.506Z,93.13
2023-01-06T07:19:28.553Z,93.37
2023-01-06T07:24:30.211Z,92.88
2023-01-06T07:29:31.867Z,92.46
2023-01-06T07:34:33.600Z,92.76
2023-01-06T07:39:35.409Z,92.95
2023-01-06T07:44:37.680Z,92.84
2023-01-06T07:49:39.386Z,92.87
2023-01-06T07:54:41.126Z,93.78
2023-01-06T07:59:42.723Z,93.77
2023-01-06T08:04:44.583Z,93.21
2023-01-06T08:09:46.243Z,93.00
2023-01-06T08:14:47.985Z,92.96
2023-01-06T08:19:49.750Z,92.73
2023-01-06T08:24:51.500Z,92.84
2023-01-06T08:29:55.227Z,92.80
2023-01-06T08:34:56.802Z,92.98
2023-01-06T08:39:58.499Z,93.58
2023-01-06T08:45:00.308Z,94.08
2023-01-06T08:50:02.164Z,95.25
2023-01-06T08:55:04.247Z,96.21
2023-01-06T09:00:07.323Z,96.83
2023-01-06T09:05:09.409Z,96.83
2023-01-06T09:10:13.679Z,95.92
2023-01-06T09:15:15.900Z,94.95
2023-01-06T09:20:17.846Z,93.93
2023-01-06T09:25:21.475Z,93.36
2023-01-06T09:30:25.181Z,92.67
2023-01-06T09:35:27.078Z,92.38
2023-01-06T09:41:10.094Z,91.56
2023-01-06T09:46:14.168Z,91.09
2023-01-06T09:51:22.757Z,90.74
2023-01-06T09:56:25.635Z,90.42
2023-01-06T10:01:38.999Z,90.56
2023-01-06T10:06:40.628Z,90.53
2023-01-06T10:11:51.349Z,90.45
2023-01-06T10:17:24.232Z,89.98
2023-01-06T10:22:49.788Z,89.75
2023-01-06T10:27:59.264Z,89.68
2023-01-06T10:33:01.814Z,89.45
2023-01-06T10:38:06.888Z,89.69
2023-01-06T10:43:12.344Z,89.56
2023-01-06T10:48:20.138Z,89.03
2023-01-06T10:53:21.906Z,89.63
2023-01-06T10:58:41.851Z,89.85
2023-01-06T11:03:45.076Z,89.34
2023-01-06T11:08:47.195Z,89.17
2023-01-06T11:13:55.971Z,90.46
2023-01-06T11:19:04.204Z,90.59
2023-01-06T11:24:17.919Z,91.61
2023-01-06T11:29:26.502Z,91.81
2023-01-06T11:34:31.270Z,91.93
2023-01-06T11:39:35.885Z,92.24
2023-01-06T11:44:40.291Z,92.58
2023-01-06T11:49:54.426Z,92.66
2023-01-06T11:54:57.541Z,91.78
2023-01-06T12:00:33.207Z,89.28
2023-01-06T12:05:43.092Z,88.52
2023-01-06T12:10:48.323Z,89.44
2023-01-06T12:16:00.103Z,89.01
2023-01-06T12:21:04.888Z,88.68
2023-01-06T12:26:16.284Z,88.23
2023-01-06T12:31:35.216Z,88.49
2023-01-06T12:36:47.921Z,87.84
2023-01-06T12:41:57.681Z,88.39
2023-01-06T12:47:06.367Z,89.24
2023-01-06T12:52:15.332Z,89.41
2023-01-06T12:57:16.983Z,89.29
2023-01-06T13:02:25.260Z,89.26
2023-01-06T13:07:42.439Z,89.16
2023-01-06T13:12:44.069Z,89.38
2023-01-06T13:18:05.760Z,89.03
2023-01-06T13:23:16.513Z,89.02
2023-01-06T13:28:40.963Z,88.97
2023-01-06T13:34:01.160Z,88.82
2023-01-06T13:39:23.228Z,88.27
2023-01-06T13:44:29.296Z,87.47
2023-01-06T13:49:31.953Z,87.45
2023-01-06T13:54:39.790Z,87.15
2023-01-06T13:59:52.576Z,87.54
2023-01-06T14:04:54.279Z,87.41
2023-01-06T14:09:56.031Z,87.50
2023-01-06T14:15:01.564Z,87.37
2023-01-06T14:20:04.043Z,87.55
2023-01-06T14:25:08.827Z,87.77
2023-01-06T14:30:21.024Z,88.52
2023-01-06T14:35:29.419Z,88.23
2023-01-06T14:40:39.668Z,87.88
2023-01-06T14:45:42.977Z,88.00
2023-01-06T14:50:51.970Z,88.03
2023-01-06T14:55:55.203Z,88.07
2023-01-06T15:00:57.898Z,87.96
2023-01-06T15:06:29.123Z,87.78
2023-01-06T15:11:33.395Z,87.87
2023-01-06T15:16:38.794Z,87.97
2023-01-06T15:21:42.850Z,87.88
2023-01-06T15:26:44.561Z,88.06
2023-01-06T15:31:48.088Z,88.37
2023-01-06T15:36:53.373Z,88.41
2023-01-06T15:41:56.822Z,88.18
2023-01-06T15:47:06.484Z,88.11
2023-01-06T15:52:24.447Z,87.76
2023-01-06T15:57:30.388Z,87.77
2023-01-06T16:02:33.498Z,87.57
2023-01-06T16:07:39.050Z,87.86
2023-01-06T16:12:40.801Z,88.25
2023-01-06T16:17:46.355Z,88.58
2023-01-06T16:22:51.258Z,88.68
2023-01-06T16:27:59.279Z,88.70
2023-01-06T16:33:01.052Z,88.93
2023-01-06T16:38:03.631Z,89.23
2023-01-06T16:43:05.301Z,89.16
2023-01-06T16:48:07.092Z,89.39
2023-01-06T16:53:15.329Z,89.22
2023-01-06T16:58:22.950Z,89.54
2023-01-06T17:03:28.689Z,89.70
2023-01-06T17:08:34.557Z,89.71
2023-01-06T17:13:36.633Z,89.95
2023-01-06T17:18:52.430Z,90.00
2023-01-06T17:24:25.539Z,90.44
2023-01-06T17:29:32.767Z,90.67
2023-01-06T17:34:36.952Z,90.96
2023-01-06T17:39:41.025Z,91.38
2023-01-06T17:44:48.765Z,91.65
2023-01-06T17:50:01.119Z,91.55
2023-01-06T17:55:27.450Z,91.48
2023-01-06T18:00:34.866Z,91.68
2023-01-06T18:05:36.550Z,91.86
2023-01-06T18:10:42.583Z,91.86
2023-01-06T18:15:46.590Z,91.75
2023-01-06T18:21:19.532Z,91.70
2023-01-06T18:26:24.019Z,91.80
2023-01-06T18:31:32.125Z,91.98
2023-01-06T18:36:33.889Z,92.14
2023-01-06T18:41:35.583Z,92.41
2023-01-06T18:46:40.388Z,92.30
2023-01-06T18:51:42.754Z,92.59
2023-01-06T18:56:44.549Z,92.59
2023-01-06T19:01:50.469Z,92.41
2023-01-06T19:06:57.966Z,92.21
2023-01-06T19:12:13.375Z,92.15
2023-01-06T19:17:33.156Z,92.27
2023-01-06T19:22:38.028Z,92.56
2023-01-06T19:28:02.494Z,92.38
2023-01-06T19:33:18.182Z,92.08
2023-01-06T19:38:25.527Z,92.13
2023-01-06T19:43:33.016Z,92.27
2023-01-06T19:48:41.248Z,92.19
2023-01-06T19:53:49.046Z,92.18
2023-01-06T19:58:58.516Z,92.20
2023-01-06T20:04:00.732Z,92.39
2023-01-06T20:09:02.476Z,92.25
2023-01-06T20:14:04.256Z,92.98
2023-01-06T20:19:05.949Z,92.80
2023-01-06T20:24:07.912Z,92.90
2023-01-06T20:29:09.964Z,92.63
2023-01-06T20:34:11.670Z,92.99
2023-01-06T20:39:15.109Z,92.99
2023-01-06T20:44:16.801Z,93.11
2023-01-06T20:49:20.494Z,93.64
2023-01-06T20:54:22.343Z,93.56
2023-01-06T20:59:24.378Z,93.61
2023-01-06T21:04:26.228Z,93.90
2023-01-06T21:09:29.235Z,93.62
2023-01-06T21:14:32.251Z,93.84
2023-01-06T21:19:34.684Z,93.43
2023-01-06T21:24:36.412Z,93.61
2023-01-06T21:29:38.174Z,93.55
2023-01-06T21:34:39.917Z,93.49
2023-01-06T21:39:41.843Z,93.24
2023-01-06T21:44:43.779Z,93.67
2023-01-06T21:49:45.988Z,93.48
2023-01-06T21:54:47.818Z,93.68
2023-01-06T21:59:49.691Z,93.61
2023-01-06T22:04:52.582Z,94.20
2023-01-06T22:09:55.465Z,93.94
2023-01-06T22:14:57.308Z,94.02
2023-01-06T22:19:59.304Z,94.15
2023-01-06T22:25:01.870Z,94.08
2023-01-06T22:30:04.930Z,94.02
2023-01-06T22:35:07.419Z,94.14
2023-01-06T22:40:11.025Z,93.94
2023-01-06T22:45:13.187Z,94.42
2023-01-06T22:50:15.202Z,94.48
2023-01-06T22:55:16.955Z,94.33
2023-01-06T23:00:19.065Z,94.43
2023-01-06T23:05:20.970Z,94.73
2023-01-06T23:10:22.857Z,94.56
2023-01-06T23:15:24.617Z,94.25
2023-01-06T23:20:26.334Z,94.17
2023-01-06T23:25:27.977Z,94.01
2023-01-06T23:30:29.635Z,94.27
2023-01-06T23:35:31.965Z,94.71
2023-01-06T23:40:33.725Z,94.98
2023-01-06T23:45:35.567Z,95.07
2023-01-06T23:50:37.370Z,94.85
2023-01-06T23:55:38.966Z,94.70
